createdAt,value
2018-11-21T00:00:01.177Z,1.80
2018-11-21T00:03:23.113Z,1.80
2018-11-21T00:06:45.448Z,1.80
2018-11-21T00:10:09.552Z,1.80
2018-11-21T00:13:31.776Z,1.70
2018-11-21T00:16:53.522Z,1.70
2018-11-21T00:20:15.178Z,1.70
2018-11-21T00:23:37.074Z,1.70
2018-11-21T00:26:59.190Z,1.70
2018-11-21T00:30:21.302Z,1.70
2018-11-21T00:33:43.223Z,1.70
2018-11-21T00:37:05.263Z,1.70
2018-11-21T00:40:26.948Z,1.70
2018-11-21T00:43:48.598Z,1.70
2018-11-21T00:47:10.530Z,1.70
2018-11-21T00:50:32.482Z,1.60
2018-11-21T00:53:54.451Z,1.60
2018-11-21T00:57:16.437Z,1.60
2018-11-21T01:00:38.105Z,1.60
2018-11-21T01:04:07.237Z,1.60
2018-11-21T01:07:29.198Z,1.60
2018-11-21T01:10:50.973Z,1.60
2018-11-21T01:14:13.072Z,1.60
2018-11-21T01:17:35.221Z,1.50
2018-11-21T01:20:56.957Z,1.50
2018-11-21T01:24:18.628Z,1.50
2018-11-21T01:27:40.297Z,1.50
2018-11-21T01:31:02.441Z,1.50
2018-11-21T01:34:24.477Z,1.50
2018-11-21T01:37:46.705Z,1.50
2018-11-21T01:41:08.893Z,1.50
2018-11-21T01:44:30.803Z,1.50
2018-11-21T01:47:52.857Z,1.50
2018-11-21T01:51:14.954Z,1.50
2018-11-21T01:54:36.533Z,1.40
2018-11-21T01:57:58.742Z,1.40
2018-11-21T02:01:20.594Z,1.40
2018-11-21T02:04:42.560Z,1.40
2018-11-21T02:08:04.470Z,1.40
2018-11-21T02:11:26.283Z,1.40
2018-11-21T02:14:48.323Z,1.40
2018-11-21T02:18:10.554Z,1.40
2018-11-21T02:21:32.852Z,1.40
2018-11-21T02:24:54.792Z,1.40
2018-11-21T02:28:16.741Z,1.30
2018-11-21T02:31:38.499Z,1.30
2018-11-21T02:35:00.189Z,1.30
2018-11-21T02:38:22.256Z,1.30
2018-11-21T02:41:44.338Z,1.30
2018-11-21T02:45:06.195Z,1.30
2018-11-21T02:48:28.085Z,1.30
2018-11-21T02:51:50.118Z,1.30
2018-11-21T02:55:11.781Z,1.20
2018-11-21T02:58:33.561Z,1.20
2018-11-21T03:01:55.414Z,1.20
2018-11-21T03:05:17.861Z,1.30
2018-11-21T03:08:39.715Z,1.20
2018-11-21T03:12:01.621Z,1.20
2018-11-21T03:15:23.345Z,1.20
2018-11-21T03:18:45.082Z,1.20
2018-11-21T03:22:06.783Z,1.20
2018-11-21T03:25:28.688Z,1.20
2018-11-21T03:28:50.325Z,1.20
2018-11-21T03:32:12.325Z,1.10
2018-11-21T03:35:34.058Z,1.20
2018-11-21T03:38:56.257Z,1.10
2018-11-21T03:42:18.174Z,1.10
2018-11-21T03:45:39.925Z,1.10
2018-11-21T03:49:02.029Z,1.10
2018-11-21T03:52:23.937Z,1.10
2018-11-21T03:55:46.089Z,1.10
2018-11-21T03:59:08.260Z,1.10
2018-11-21T04:02:30.502Z,1.10
2018-11-21T04:05:52.492Z,1.00
2018-11-21T04:09:14.223Z,1.00
2018-11-21T04:12:36.090Z,1.10
2018-11-21T04:15:58.331Z,1.10
2018-11-21T04:19:19.862Z,1.00
2018-11-21T04:22:41.745Z,1.00
2018-11-21T04:26:03.582Z,1.00
2018-11-21T04:29:25.409Z,1.00
2018-11-21T04:32:47.223Z,0.90
2018-11-21T04:36:09.476Z,0.90
2018-11-21T04:39:31.520Z,0.90
2018-11-21T04:42:53.334Z,0.90
2018-11-21T04:46:15.367Z,0.90
2018-11-21T04:49:37.118Z,0.90
2018-11-21T04:52:59.028Z,1.00
2018-11-21T04:56:20.709Z,1.00
2018-11-21T04:59:42.404Z,1.00
2018-11-21T05:03:04.632Z,1.00
2018-11-21T05:06:26.306Z,1.00
2018-11-21T05:09:48.448Z,1.00
2018-11-21T05:13:10.469Z,1.00
2018-11-21T05:16:32.669Z,1.10
2018-11-21T05:19:54.849Z,1.00
2018-11-21T05:23:17.149Z,1.10
2018-11-21T05:26:39.148Z,1.10
2018-11-21T05:30:01.595Z,1.10
2018-11-21T05:33:24.798Z,1.10
2018-11-21T05:36:47.063Z,1.10
2018-11-21T05:40:09.546Z,1.10
2018-11-21T05:43:31.404Z,1.10
2018-11-21T05:46:53.783Z,1.10
2018-11-21T05:50:14.681Z,1.10
2018-11-21T05:53:36.657Z,1.10
2018-11-21T05:56:58.480Z,1.10
2018-11-21T06:00:20.253Z,1.10
2018-11-21T06:03:42.274Z,1.10
2018-11-21T06:07:04.118Z,1.10
2018-11-21T06:10:26.137Z,1.10
2018-11-21T06:13:48.613Z,1.10
2018-11-21T06:17:10.478Z,1.10
2018-11-21T06:20:32.626Z,1.10
2018-11-21T06:23:54.897Z,1.10
2018-11-21T06:27:17.057Z,1.10
2018-11-21T06:30:38.993Z,1.10
2018-11-21T06:34:00.989Z,1.10
2018-11-21T06:37:23.021Z,1.10
2018-11-21T06:40:45.004Z,1.20
2018-11-21T06:44:06.760Z,1.20
2018-11-21T06:47:28.844Z,1.20
2018-11-21T06:50:50.465Z,1.20
2018-11-21T06:54:13.496Z,1.20
2018-11-21T06:57:35.481Z,1.10
2018-11-21T07:00:57.821Z,1.20
2018-11-21T07:04:19.971Z,1.20
2018-11-21T07:07:41.897Z,1.20
2018-11-21T07:11:03.707Z,1.10
2018-11-21T07:14:25.557Z,1.20
2018-11-21T07:17:47.576Z,1.20
2018-11-21T07:21:09.543Z,1.20
2018-11-21T07:24:31.348Z,1.20
2018-11-21T07:27:53.441Z,1.20
2018-11-21T07:31:15.412Z,1.20
2018-11-21T07:34:37.638Z,1.20
2018-11-21T07:37:59.385Z,1.10
2018-11-21T07:41:21.727Z,1.10
2018-11-21T07:44:44.149Z,1.20
2018-11-21T07:48:06.299Z,1.20
2018-11-21T07:51:28.405Z,1.20
2018-11-21T07:54:50.914Z,1.20
2018-11-21T07:58:15.707Z,1.10
2018-11-21T08:01:46.359Z,1.10
2018-11-21T08:05:13.891Z,1.10
2018-11-21T08:08:52.435Z,1.20
2018-11-21T08:12:24.613Z,1.20
2018-11-21T08:16:08.872Z,1.20
2018-11-21T08:19:42.913Z,1.20
2018-11-21T08:23:33.725Z,1.20
2018-11-21T08:27:22.756Z,1.30
2018-11-21T08:30:44.857Z,1.30
2018-11-21T08:34:06.659Z,1.30
2018-11-21T08:37:28.384Z,1.40
2018-11-21T08:40:50.015Z,1.40
2018-11-21T08:44:11.723Z,1.30
2018-11-21T08:47:33.640Z,1.30
2018-11-21T08:50:56.094Z,1.30
2018-11-21T08:54:18.254Z,1.40
2018-11-21T08:57:40.079Z,1.30
2018-11-21T09:01:02.162Z,1.30
2018-11-21T09:04:24.303Z,1.20
2018-11-21T09:07:46.344Z,1.30
2018-11-21T09:11:08.229Z,1.40
2018-11-21T09:14:30.805Z,1.40
2018-11-21T09:17:52.781Z,1.50
2018-11-21T09:21:14.332Z,1.40
2018-11-21T09:24:35.847Z,1.30
2018-11-21T09:27:57.597Z,1.30
2018-11-21T09:31:19.418Z,1.30
2018-11-21T09:34:41.167Z,1.20
2018-11-21T09:38:03.527Z,1.30
2018-11-21T09:41:25.300Z,1.20
2018-11-21T09:44:47.452Z,1.20
2018-11-21T09:48:09.246Z,1.20
2018-11-21T09:51:31.009Z,1.20
2018-11-21T09:54:53.129Z,1.20
2018-11-21T09:58:15.361Z,1.20
2018-11-21T10:02:14.238Z,1.30
2018-11-21T10:05:36.217Z,1.30
2018-11-21T10:08:59.903Z,1.30
2018-11-21T10:12:21.730Z,1.20
2018-11-21T10:15:43.653Z,1.20
2018-11-21T10:19:06.213Z,1.20
2018-11-21T10:22:28.138Z,1.20
2018-11-21T10:25:50.572Z,1.20
2018-11-21T10:29:12.224Z,1.20
2018-11-21T10:32:34.265Z,1.20
2018-11-21T10:36:25.730Z,1.20
2018-11-21T10:39:49.015Z,1.20
2018-11-21T10:43:12.753Z,1.20
2018-11-21T10:46:36.009Z,1.20
2018-11-21T10:49:59.279Z,1.30
2018-11-21T10:53:22.296Z,1.30
2018-11-21T10:56:45.541Z,1.30
2018-11-21T11:00:16.218Z,1.30
2018-11-21T11:03:43.594Z,1.30
2018-11-21T11:07:27.548Z,1.30
2018-11-21T11:11:10.717Z,1.40
2018-11-21T11:15:04.648Z,1.40
2018-11-21T11:18:37.873Z,1.40
2018-11-21T11:22:25.030Z,1.40
2018-11-21T11:26:12.538Z,1.40
2018-11-21T11:29:54.522Z,1.40
2018-11-21T11:33:30.922Z,1.50
2018-11-21T11:37:11.802Z,1.50
2018-11-21T11:40:52.286Z,1.50
2018-11-21T11:44:39.690Z,1.50
2018-11-21T11:48:18.906Z,1.50
2018-11-21T11:51:51.490Z,1.50
2018-11-21T11:55:31.828Z,1.50
2018-11-21T11:59:12.443Z,1.60
2018-11-21T12:02:53.630Z,1.50
2018-11-21T12:06:47.618Z,1.60
2018-11-21T12:10:29.475Z,1.60
2018-11-21T12:14:29.497Z,1.70
2018-11-21T12:18:20.310Z,1.60
2018-11-21T12:22:00.986Z,1.70
2018-11-21T12:25:37.339Z,1.70
2018-11-21T12:29:17.679Z,1.70
2018-11-21T12:32:48.676Z,1.70
2018-11-21T12:36:29.449Z,1.70
2018-11-21T12:40:14.269Z,1.70
2018-11-21T12:44:11.235Z,1.70
2018-11-21T12:47:45.474Z,1.70
2018-11-21T12:51:33.630Z,1.70
2018-11-21T12:55:14.525Z,1.70
2018-11-21T12:59:03.890Z,1.70
2018-11-21T13:02:35.144Z,1.80
2018-11-21T13:06:10.939Z,1.80
2018-11-21T13:10:08.197Z,1.80
2018-11-21T13:13:51.490Z,1.80
2018-11-21T13:17:32.206Z,1.80
2018-11-21T13:21:23.058Z,1.80
2018-11-21T13:25:03.891Z,1.80
2018-11-21T13:28:44.207Z,1.80
2018-11-21T13:32:24.476Z,1.80
2018-11-21T13:36:05.853Z,1.80
2018-11-21T13:39:46.583Z,1.70
2018-11-21T13:43:26.991Z,1.70
2018-11-21T13:47:09.673Z,1.60
2018-11-21T13:50:50.128Z,1.60
2018-11-21T13:54:30.541Z,1.50
2018-11-21T13:57:53.663Z,1.50
2018-11-21T14:01:17.097Z,1.50
2018-11-21T14:04:40.360Z,1.50
2018-11-21T14:08:03.559Z,1.50
2018-11-21T14:11:26.615Z,1.40
2018-11-21T14:14:50.082Z,1.40
2018-11-21T14:18:13.502Z,1.40
2018-11-21T14:21:37.218Z,1.40
2018-11-21T14:25:00.554Z,1.40
2018-11-21T14:28:23.678Z,1.40
2018-11-21T14:31:47.742Z,1.40
2018-11-21T14:35:12.935Z,1.30
2018-11-21T14:38:36.115Z,1.40
2018-11-21T14:41:59.494Z,1.40
2018-11-21T14:45:22.534Z,1.40
2018-11-21T14:48:45.573Z,1.30
2018-11-21T14:52:08.903Z,1.30
2018-11-21T14:55:31.898Z,1.30
2018-11-21T14:58:55.373Z,1.30
2018-11-21T15:02:18.772Z,1.20
2018-11-21T15:05:41.973Z,1.20
2018-11-21T15:09:08.641Z,1.20
2018-11-21T15:12:31.850Z,1.20
2018-11-21T15:15:54.736Z,1.20
2018-11-21T15:19:18.011Z,1.20
2018-11-21T15:22:41.042Z,1.20
2018-11-21T15:26:04.264Z,1.20
2018-11-21T15:29:27.887Z,1.10
2018-11-21T15:32:50.782Z,1.10
2018-11-21T15:36:13.890Z,1.10
2018-11-21T15:39:37.030Z,1.10
2018-11-21T15:43:00.290Z,1.10
2018-11-21T15:46:23.473Z,1.10
2018-11-21T15:49:46.266Z,1.10
2018-11-21T15:53:09.129Z,1.20
2018-11-21T15:56:32.218Z,1.10
2018-11-21T15:59:54.956Z,1.10
2018-11-21T16:03:18.174Z,1.10
2018-11-21T16:06:41.454Z,1.10
2018-11-21T16:10:09.867Z,1.00
2018-11-21T16:13:29.275Z,1.10
2018-11-21T16:16:52.564Z,1.00
2018-11-21T16:20:16.911Z,1.10
2018-11-21T16:23:40.306Z,1.00
2018-11-21T16:27:03.833Z,1.00
2018-11-21T16:30:27.590Z,1.00
2018-11-21T16:33:50.428Z,1.00
2018-11-21T16:37:13.667Z,1.00
2018-11-21T16:40:37.351Z,1.00
2018-11-21T16:44:00.519Z,1.00
2018-11-21T16:47:23.713Z,1.00
2018-11-21T16:50:46.900Z,1.00
2018-11-21T16:54:10.318Z,1.00
2018-11-21T16:57:33.630Z,1.00
2018-11-21T17:00:56.914Z,1.00
2018-11-21T17:04:20.048Z,1.00
2018-11-21T17:07:43.492Z,1.00
2018-11-21T17:11:06.886Z,1.00
2018-11-21T17:14:29.638Z,1.00
2018-11-21T17:17:52.479Z,1.00
2018-11-21T17:21:15.954Z,1.00
2018-11-21T17:24:39.161Z,1.00
2018-11-21T17:28:02.865Z,0.90
2018-11-21T17:31:25.685Z,1.00
2018-11-21T17:34:48.891Z,0.90
2018-11-21T17:38:12.056Z,0.90
2018-11-21T17:41:35.215Z,0.90
2018-11-21T17:44:58.825Z,0.80
2018-11-21T17:48:22.042Z,0.80
2018-11-21T17:51:44.892Z,0.70
2018-11-21T17:55:10.420Z,0.60
2018-11-21T17:58:33.350Z,0.50
2018-11-21T18:01:56.141Z,0.50
2018-11-21T18:05:23.809Z,0.50
2018-11-21T18:08:46.707Z,0.50
2018-11-21T18:12:09.610Z,0.50
2018-11-21T18:15:32.849Z,0.40
2018-11-21T18:18:56.150Z,0.40
2018-11-21T18:22:19.385Z,0.40
2018-11-21T18:25:44.196Z,0.40
2018-11-21T18:29:11.608Z,0.40
2018-11-21T18:32:30.143Z,0.40
2018-11-21T18:35:53.167Z,0.40
2018-11-21T18:39:16.015Z,0.40
2018-11-21T18:42:39.086Z,0.40
2018-11-21T18:46:02.278Z,0.40
2018-11-21T18:49:25.584Z,0.50
2018-11-21T18:52:50.125Z,0.50
2018-11-21T18:56:31.918Z,0.50
2018-11-21T19:00:18.107Z,0.50
2018-11-21T19:03:41.346Z,0.60
2018-11-21T19:07:05.230Z,0.60
2018-11-21T19:10:28.375Z,0.60
2018-11-21T19:13:52.169Z,0.70
2018-11-21T19:17:15.181Z,0.70
2018-11-21T19:20:38.366Z,0.70
2018-11-21T19:24:01.670Z,0.70
2018-11-21T19:27:25.293Z,0.80
2018-11-21T19:30:48.674Z,0.80
2018-11-21T19:34:11.924Z,0.80
2018-11-21T19:37:34.959Z,0.80
2018-11-21T19:40:58.101Z,0.80
2018-11-21T19:44:21.409Z,0.80
2018-11-21T19:47:44.979Z,0.80
2018-11-21T19:51:08.678Z,0.90
2018-11-21T19:54:31.429Z,0.90
2018-11-21T19:57:54.549Z,0.90
2018-11-21T20:01:17.754Z,0.90
2018-11-21T20:04:40.941Z,0.90
2018-11-21T20:08:04.241Z,0.90
2018-11-21T20:11:27.261Z,0.90
2018-11-21T20:14:50.300Z,0.90
2018-11-21T20:18:13.582Z,0.90
2018-11-21T20:21:36.490Z,0.90
2018-11-21T20:24:59.658Z,0.90
2018-11-21T20:28:23.050Z,1.00
2018-11-21T20:31:46.228Z,0.90
2018-11-21T20:35:10.343Z,0.90
2018-11-21T20:38:34.025Z,0.90
2018-11-21T20:41:57.219Z,0.90
2018-11-21T20:45:21.797Z,0.90
2018-11-21T20:48:45.161Z,0.90
2018-11-21T20:52:08.370Z,0.90
2018-11-21T20:55:32.498Z,0.90
2018-11-21T20:58:56.129Z,0.90
2018-11-21T21:02:19.165Z,0.90
2018-11-21T21:05:42.328Z,0.90
2018-11-21T21:09:09.709Z,0.90
2018-11-21T21:12:33.281Z,0.90
2018-11-21T21:15:56.908Z,0.90
2018-11-21T21:19:20.168Z,0.90
2018-11-21T21:22:43.937Z,0.90
2018-11-21T21:26:07.918Z,0.90
2018-11-21T21:29:31.500Z,0.90
2018-11-21T21:32:54.837Z,0.90
2018-11-21T21:36:17.781Z,0.90
2018-11-21T21:39:40.988Z,0.90
2018-11-21T21:43:03.929Z,0.90
2018-11-21T21:46:27.229Z,0.90
2018-11-21T21:49:53.714Z,0.90
2018-11-21T21:53:16.869Z,0.90
2018-11-21T21:56:39.734Z,0.90
2018-11-21T22:00:03.590Z,0.90
2018-11-21T22:03:26.036Z,0.90
2018-11-21T22:06:48.985Z,0.90
2018-11-21T22:10:13.792Z,0.90
2018-11-21T22:13:36.526Z,0.90
2018-11-21T22:16:59.744Z,0.90
2018-11-21T22:20:23.400Z,0.80
2018-11-21T22:23:46.198Z,0.90
2018-11-21T22:27:09.039Z,0.90
2018-11-21T22:30:32.068Z,0.90
2018-11-21T22:33:55.085Z,0.90
2018-11-21T22:37:18.518Z,0.90
2018-11-21T22:40:41.500Z,0.80
2018-11-21T22:44:04.816Z,0.80
2018-11-21T22:47:28.179Z,0.80
2018-11-21T22:50:51.313Z,0.90
2018-11-21T22:54:14.584Z,0.90
2018-11-21T22:57:37.996Z,0.90
2018-11-21T23:01:01.586Z,0.90
2018-11-21T23:04:24.572Z,0.90
2018-11-21T23:07:47.698Z,0.90
2018-11-21T23:11:11.095Z,0.80
2018-11-21T23:14:34.295Z,0.80
2018-11-21T23:17:57.746Z,0.80
2018-11-21T23:21:20.515Z,0.80
2018-11-21T23:24:43.956Z,0.70
2018-11-21T23:28:07.551Z,0.70
2018-11-21T23:31:30.917Z,0.70
2018-11-21T23:34:53.881Z,0.70
2018-11-21T23:38:16.818Z,0.70
2018-11-21T23:41:40.190Z,0.70
2018-11-21T23:45:03.950Z,0.70
2018-11-21T23:48:26.841Z,0.70
2018-11-21T23:51:49.968Z,0.70
2018-11-21T23:55:15.650Z,0.80
2018-11-21T23:58:38.749Z,0.80
